Time;durP1;ratioP1;P1;durP2;ratioP2;P2;SDS_P1;SDS_P2;PMS_P1;PMS_P2;Temp;Humidity;BMP_temperature;BMP_pressure;BME280_temperature;BME280_humidity;BME280_pressure;Samples;Min_cycle;Max_cycle;Signal;HPM_P1;HPM_P2
2021/12/09 00:00:26;;;;;;;5.40;3.25;;;;;;;;;;5050632;28;20199;-77
2021/12/09 00:02:56;;;;;;;4.68;3.05;;;;;;;;;;5057641;28;20194;-78
2021/12/09 00:05:23;;;;;;;5.25;3.40;;;;;;;;;;5059005;28;20207;-75
2021/12/09 00:07:52;;;;;;;7.28;3.30;;;;;;;;;;5045761;28;20199;-75
2021/12/09 00:10:20;;;;;;;8.10;3.30;;;;;;;;;;5048483;28;20544;-77
2021/12/09 00:12:47;;;;;;;8.70;3.45;;;;;;;;;;5047310;28;20256;-77
2021/12/09 00:15:15;;;;;;;5.78;3.40;;;;;;;;;;5050838;28;20312;-78
2021/12/09 00:17:42;;;;;;;4.72;3.10;;;;;;;;;;5052875;28;20202;-76
2021/12/09 00:20:12;;;;;;;6.32;3.60;;;;;;;;;;5058137;28;20197;-75
2021/12/09 00:22:39;;;;;;;5.63;3.63;;;;;;;;;;5063462;28;20300;-75
2021/12/09 00:25:07;;;;;;;9.38;3.60;;;;;;;;;;5072019;28;20249;-76
2021/12/09 00:27:34;;;;;;;5.32;2.90;;;;;;;;;;5063096;28;20281;-77
2021/12/09 00:30:01;;;;;;;5.50;3.35;;;;;;;;;;5048554;28;20232;-77
2021/12/09 00:32:28;;;;;;;5.18;3.60;;;;;;;;;;5051331;28;20235;-77
2021/12/09 00:34:56;;;;;;;7.40;3.35;;;;;;;;;;5057031;28;20253;-76
2021/12/09 00:37:30;;;;;;;5.10;3.15;;;;;;;;;;5057586;28;20652;-78
2021/12/09 00:39:57;;;;;;;9.40;3.78;;;;;;;;;;5050374;28;20202;-75
2021/12/09 00:42:25;;;;;;;7.20;3.50;;;;;;;;;;5051185;28;20230;-76
2021/12/09 00:44:53;;;;;;;9.10;3.40;;;;;;;;;;5051328;28;20309;-76
2021/12/09 00:47:21;;;;;;;7.90;4.15;;;;;;;;;;5051997;28;20206;-75
2021/12/09 00:49:49;;;;;;;5.03;3.42;;;;;;;;;;5053854;28;20223;-76
2021/12/09 00:52:16;;;;;;;6.05;3.40;;;;;;;;;;5057942;28;20209;-76
2021/12/09 00:54:46;;;;;;;6.90;3.47;;;;;;;;;;5054183;28;20217;-75
2021/12/09 00:57:13;;;;;;;4.05;3.30;;;;;;;;;;5048861;28;20201;-77
2021/12/09 00:59:41;;;;;;;4.13;3.00;;;;;;;;;;5050085;28;20202;-76
2021/12/09 01:02:10;;;;;;;9.60;2.92;;;;;;;;;;5048334;28;20547;-76
2021/12/09 01:04:37;;;;;;;4.03;2.95;;;;;;;;;;5045663;28;20234;-75
2021/12/09 01:07:04;;;;;;;5.65;2.78;;;;;;;;;;5041385;28;20232;-76
2021/12/09 01:09:31;;;;;;;5.40;2.70;;;;;;;;;;5051033;28;20229;-79
2021/12/09 01:12:00;;;;;;;5.55;3.20;;;;;;;;;;5053498;28;20198;-76
2021/12/09 01:14:27;;;;;;;5.88;2.97;;;;;;;;;;5054143;28;20198;-78
2021/12/09 01:16:54;;;;;;;5.13;3.28;;;;;;;;;;5053723;28;20198;-77
2021/12/09 01:19:21;;;;;;;6.65;3.50;;;;;;;;;;5051220;28;20206;-75
2021/12/09 01:21:49;;;;;;;4.90;3.47;;;;;;;;;;5050732;28;20677;-76
2021/12/09 01:24:16;;;;;;;5.55;3.60;;;;;;;;;;5048362;28;20202;-77
2021/12/09 01:26:45;;;;;;;5.13;3.10;;;;;;;;;;5051027;28;20246;-75
2021/12/09 01:29:18;;;;;;;8.27;3.47;;;;;;;;;;5053010;28;20222;-76
2021/12/09 01:31:53;;;;;;;7.28;3.42;;;;;;;;;;5051323;28;20213;-76
2021/12/09 01:34:21;;;;;;;5.13;2.90;;;;;;;;;;5055387;28;20194;-75
2021/12/09 01:36:50;;;;;;;6.25;3.05;;;;;;;;;;5055681;28;20205;-77
2021/12/09 01:39:17;;;;;;;9.32;3.40;;;;;;;;;;5050613;28;20199;-76
2021/12/09 01:41:45;;;;;;;4.63;3.40;;;;;;;;;;5050518;28;20201;-75
2021/12/09 01:44:13;;;;;;;4.85;3.75;;;;;;;;;;5049310;28;20225;-76
2021/12/09 01:46:41;;;;;;;6.90;3.08;;;;;;;;;;5048682;28;20261;-77
2021/12/09 01:49:09;;;;;;;6.53;3.55;;;;;;;;;;5051509;28;20218;-76
2021/12/09 01:51:36;;;;;;;4.43;2.67;;;;;;;;;;5057898;28;20198;-75
2021/12/09 01:54:03;;;;;;;5.30;3.10;;;;;;;;;;5051439;28;20602;-75
2021/12/09 01:56:31;;;;;;;6.10;3.25;;;;;;;;;;5050468;28;20691;-75
2021/12/09 01:58:59;;;;;;;7.47;3.67;;;;;;;;;;5047886;28;20559;-76
2021/12/09 02:01:28;;;;;;;3.53;2.70;;;;;;;;;;5049598;28;20199;-77
2021/12/09 02:03:55;;;;;;;5.13;2.80;;;;;;;;;;5041482;28;20317;-76
2021/12/09 02:06:22;;;;;;;6.00;2.90;;;;;;;;;;5031510;28;20219;-77
2021/12/09 02:08:50;;;;;;;6.00;2.85;;;;;;;;;;5031370;28;20203;-75
2021/12/09 02:11:17;;;;;;;5.95;3.00;;;;;;;;;;5040347;28;20201;-75
2021/12/09 02:13:45;;;;;;;7.03;3.22;;;;;;;;;;5054435;28;20190;-75
2021/12/09 02:16:13;;;;;;;6.57;2.95;;;;;;;;;;5049174;28;20219;-75
2021/12/09 02:18:42;;;;;;;4.82;2.75;;;;;;;;;;5046464;28;20207;-75
2021/12/09 02:21:14;;;;;;;6.82;2.90;;;;;;;;;;5046668;28;20203;-75
2021/12/09 02:23:42;;;;;;;5.28;2.80;;;;;;;;;;5049745;28;20194;-75
2021/12/09 02:26:10;;;;;;;3.22;2.10;;;;;;;;;;5048243;28;20309;-76
2021/12/09 02:28:41;;;;;;;4.68;2.92;;;;;;;;;;5053428;28;20725;-77
2021/12/09 02:31:08;;;;;;;6.88;3.42;;;;;;;;;;5057477;28;20309;-75
2021/12/09 02:33:36;;;;;;;6.55;2.38;;;;;;;;;;5050915;28;20289;-74
2021/12/09 02:36:03;;;;;;;9.07;3.28;;;;;;;;;;5046808;28;20219;-75
2021/12/09 02:38:32;;;;;;;6.35;2.88;;;;;;;;;;5048922;28;20210;-75
2021/12/09 02:41:02;;;;;;;5.43;3.00;;;;;;;;;;5049495;28;20589;-77
2021/12/09 02:43:31;;;;;;;5.50;3.00;;;;;;;;;;5048361;28;20257;-76
2021/12/09 02:46:00;;;;;;;6.80;2.60;;;;;;;;;;5054428;28;20233;-75
2021/12/09 02:48:27;;;;;;;6.68;3.10;;;;;;;;;;5059952;28;20186;-75
2021/12/09 02:50:54;;;;;;;7.60;3.35;;;;;;;;;;5068394;28;20240;-76
2021/12/09 02:53:22;;;;;;;6.50;2.60;;;;;;;;;;5068727;28;20292;-76
2021/12/09 02:55:50;;;;;;;7.63;3.50;;;;;;;;;;5068589;28;20589;-75
2021/12/09 02:58:17;;;;;;;6.80;3.45;;;;;;;;;;5069256;28;20318;-77
2021/12/09 03:00:53;;;;;;;7.68;3.47;;;;;;;;;;5045513;28;20201;-76
2021/12/09 03:03:20;;;;;;;5.25;2.83;;;;;;;;;;5050061;28;20206;-77
2021/12/09 03:05:48;;;;;;;5.88;3.63;;;;;;;;;;5051945;28;20219;-76
2021/12/09 03:08:19;;;;;;;5.28;2.72;;;;;;;;;;5056292;28;20289;-76
2021/12/09 03:10:47;;;;;;;3.13;2.58;;;;;;;;;;5052661;28;20242;-77
2021/12/09 03:13:17;;;;;;;6.18;2.75;;;;;;;;;;5049766;28;20226;-76
2021/12/09 03:15:44;;;;;;;5.85;2.45;;;;;;;;;;5045834;28;20219;-76
2021/12/09 03:18:11;;;;;;;9.43;3.42;;;;;;;;;;5049677;28;20210;-76
2021/12/09 03:20:38;;;;;;;7.78;4.47;;;;;;;;;;5044441;28;20199;-76
2021/12/09 03:23:05;;;;;;;4.55;3.35;;;;;;;;;;5052173;28;20612;-75
2021/12/09 03:25:33;;;;;;;5.22;3.33;;;;;;;;;;5056268;28;20513;-77
2021/12/09 03:28:00;;;;;;;9.75;3.25;;;;;;;;;;5066155;28;20194;-77
2021/12/09 03:30:28;;;;;;;5.03;3.25;;;;;;;;;;5068008;28;20513;-76
2021/12/09 03:32:56;;;;;;;6.47;3.55;;;;;;;;;;5070969;28;20702;-76
2021/12/09 03:35:24;;;;;;;7.63;3.42;;;;;;;;;;5053601;28;20225;-78
2021/12/09 03:37:51;;;;;;;8.07;3.55;;;;;;;;;;5040965;28;20721;-76
2021/12/09 03:40:19;;;;;;;6.97;3.75;;;;;;;;;;5056080;28;20590;-76
2021/12/09 03:42:46;;;;;;;8.27;3.78;;;;;;;;;;5058936;28;20217;-74
2021/12/09 03:45:14;;;;;;;16.63;4.57;;;;;;;;;;5050652;28;20234;-77
2021/12/09 03:47:44;;;;;;;12.38;4.25;;;;;;;;;;5048527;28;20191;-76
2021/12/09 03:50:12;;;;;;;5.88;3.75;;;;;;;;;;5052547;28;20226;-76
2021/12/09 03:52:39;;;;;;;9.02;4.07;;;;;;;;;;5052863;28;20202;-76
2021/12/09 03:55:08;;;;;;;9.90;4.28;;;;;;;;;;5052615;28;20242;-78
2021/12/09 03:57:35;;;;;;;6.35;3.60;;;;;;;;;;5058053;28;20729;-76
2021/12/09 04:00:05;;;;;;;6.40;3.10;;;;;;;;;;5058984;28;20194;-77
2021/12/09 04:02:32;;;;;;;3.42;2.90;;;;;;;;;;5068485;28;20202;-76
2021/12/09 04:05:01;;;;;;;6.50;3.42;;;;;;;;;;5051910;28;20219;-76
2021/12/09 04:07:28;;;;;;;7.97;3.70;;;;;;;;;;5052253;28;20195;-76
2021/12/09 04:09:55;;;;;;;7.55;3.72;;;;;;;;;;5050177;28;20221;-75
2021/12/09 04:12:22;;;;;;;11.60;4.10;;;;;;;;;;5053737;28;20207;-76
2021/12/09 04:14:51;;;;;;;8.05;4.20;;;;;;;;;;5055295;28;20559;-76
2021/12/09 04:17:18;;;;;;;10.68;4.80;;;;;;;;;;5051797;28;20202;-77
2021/12/09 04:19:47;;;;;;;9.07;5.70;;;;;;;;;;5044512;28;20198;-75
2021/12/09 04:22:16;;;;;;;7.32;4.85;;;;;;;;;;5051022;28;20205;-75
2021/12/09 04:24:43;;;;;;;10.05;6.80;;;;;;;;;;5050541;28;20211;-76
2021/12/09 04:27:11;;;;;;;11.98;5.60;;;;;;;;;;5051877;28;20202;-76
2021/12/09 04:29:38;;;;;;;11.00;5.55;;;;;;;;;;5059447;28;20198;-75
2021/12/09 04:32:06;;;;;;;12.35;4.85;;;;;;;;;;5060504;28;20198;-75
2021/12/09 04:34:33;;;;;;;8.45;4.93;;;;;;;;;;5071406;28;20209;-77
2021/12/09 04:37:00;;;;;;;15.48;5.32;;;;;;;;;;5071449;28;20241;-76
2021/12/09 04:39:29;;;;;;;8.25;4.60;;;;;;;;;;5071380;28;20224;-75
2021/12/09 04:41:56;;;;;;;7.93;3.90;;;;;;;;;;5069988;28;20194;-75
2021/12/09 04:44:24;;;;;;;7.95;5.43;;;;;;;;;;5049755;28;20198;-75
2021/12/09 04:46:51;;;;;;;8.38;5.20;;;;;;;;;;5059442;28;20201;-75
2021/12/09 04:49:18;;;;;;;13.40;5.05;;;;;;;;;;5063924;28;20213;-75
2021/12/09 04:51:46;;;;;;;7.25;4.50;;;;;;;;;;5070970;28;20305;-76
2021/12/09 04:54:13;;;;;;;9.63;4.53;;;;;;;;;;5061669;28;20297;-75
2021/12/09 04:56:41;;;;;;;10.55;5.40;;;;;;;;;;5050874;28;20237;-76
2021/12/09 04:59:09;;;;;;;7.80;5.10;;;;;;;;;;5051155;28;20191;-76
2021/12/09 05:01:36;;;;;;;10.85;4.57;;;;;;;;;;5055860;28;20640;-75
2021/12/09 05:04:04;;;;;;;8.40;4.80;;;;;;;;;;5058855;28;20194;-75
2021/12/09 05:06:32;;;;;;;6.00;5.10;;;;;;;;;;5050942;28;20313;-77
2021/12/09 05:09:06;;;;;;;12.73;5.47;;;;;;;;;;5048999;28;20656;-76
2021/12/09 05:11:47;;;;;;;10.48;5.18;;;;;;;;;;5048868;28;20321;-77
2021/12/09 05:14:16;;;;;;;6.03;4.50;;;;;;;;;;5051216;28;20578;-77
2021/12/09 05:16:44;;;;;;;13.20;6.03;;;;;;;;;;5050266;28;20190;-76
2021/12/09 05:19:11;;;;;;;8.50;5.28;;;;;;;;;;5056757;28;20204;-76
2021/12/09 05:21:40;;;;;;;8.70;5.22;;;;;;;;;;5052042;28;20198;-76
2021/12/09 05:24:08;;;;;;;8.80;5.00;;;;;;;;;;5048128;28;20589;-76
2021/12/09 05:26:42;;;;;;;11.02;5.68;;;;;;;;;;5049853;28;20226;-76
2021/12/09 05:29:09;;;;;;;10.27;5.55;;;;;;;;;;5048903;28;20194;-76
2021/12/09 05:34:19;;;;;;;10.77;4.93;;;;;;;;;;5057161;28;20349;-76
2021/12/09 05:36:46;;;;;;;9.20;4.68;;;;;;;;;;5056935;28;20270;-77
2021/12/09 05:39:14;;;;;;;12.00;5.30;;;;;;;;;;5050208;28;20595;-77
2021/12/09 05:41:41;;;;;;;10.75;4.60;;;;;;;;;;5049808;28;20198;-76
2021/12/09 05:44:09;;;;;;;8.05;4.80;;;;;;;;;;5050774;28;20202;-77
2021/12/09 05:46:39;;;;;;;11.32;4.95;;;;;;;;;;5051346;28;20226;-76
2021/12/09 05:49:07;;;;;;;9.07;3.92;;;;;;;;;;5040683;28;20562;-77
2021/12/09 05:51:34;;;;;;;7.20;4.78;;;;;;;;;;5052486;28;20222;-76
2021/12/09 05:54:01;;;;;;;6.82;4.22;;;;;;;;;;5050464;28;20583;-75
2021/12/09 05:56:28;;;;;;;6.72;5.30;;;;;;;;;;5057468;28;20238;-76
2021/12/09 05:58:56;;;;;;;10.45;5.43;;;;;;;;;;5055514;28;20198;-75
2021/12/09 06:01:23;;;;;;;6.88;4.97;;;;;;;;;;5049128;28;20210;-76
2021/12/09 06:03:51;;;;;;;10.48;4.57;;;;;;;;;;5048584;28;20205;-76
2021/12/09 06:06:19;;;;;;;8.63;5.00;;;;;;;;;;5048436;28;20218;-76
2021/12/09 06:08:46;;;;;;;8.20;5.13;;;;;;;;;;5048915;28;20213;-76
2021/12/09 06:11:13;;;;;;;9.43;4.95;;;;;;;;;;5051167;28;20253;-75
2021/12/09 06:13:41;;;;;;;9.52;4.78;;;;;;;;;;5050779;28;20194;-76
2021/12/09 06:16:09;;;;;;;10.68;4.95;;;;;;;;;;5049403;28;20214;-76
2021/12/09 06:18:37;;;;;;;8.40;4.93;;;;;;;;;;5055920;28;20668;-77
2021/12/09 06:21:05;;;;;;;8.43;4.68;;;;;;;;;;5054135;28;20205;-75
2021/12/09 06:23:33;;;;;;;7.75;4.60;;;;;;;;;;5049979;28;20557;-76
2021/12/09 06:26:00;;;;;;;9.73;5.22;;;;;;;;;;5047806;28;20227;-76
2021/12/09 06:28:28;;;;;;;9.20;4.60;;;;;;;;;;5048648;28;20208;-76
2021/12/09 06:30:55;;;;;;;9.23;4.65;;;;;;;;;;5049133;28;20206;-78
2021/12/09 06:33:22;;;;;;;10.13;5.15;;;;;;;;;;5050221;28;20604;-77
2021/12/09 06:35:49;;;;;;;11.38;5.40;;;;;;;;;;5051456;28;20687;-77
2021/12/09 06:38:18;;;;;;;9.38;5.00;;;;;;;;;;5050718;28;20209;-75
2021/12/09 06:40:46;;;;;;;10.88;5.90;;;;;;;;;;5055518;28;20681;-76
2021/12/09 06:43:13;;;;;;;9.05;5.82;;;;;;;;;;5059088;28;20539;-76
2021/12/09 06:45:42;;;;;;;10.30;5.55;;;;;;;;;;5056654;28;20210;-76
2021/12/09 06:48:09;;;;;;;6.53;4.63;;;;;;;;;;5048087;28;20191;-75
2021/12/09 06:50:36;;;;;;;7.93;4.85;;;;;;;;;;5049075;28;20218;-77
2021/12/09 06:53:03;;;;;;;8.10;5.15;;;;;;;;;;5046957;28;20199;-75
2021/12/09 06:55:32;;;;;;;7.75;4.97;;;;;;;;;;5056646;28;20261;-75
2021/12/09 06:57:59;;;;;;;8.40;4.88;;;;;;;;;;5057384;28;20201;-77
2021/12/09 07:00:28;;;;;;;9.25;4.90;;;;;;;;;;5065495;28;20202;-77
2021/12/09 07:02:55;;;;;;;11.90;5.13;;;;;;;;;;5047655;28;20199;-77
2021/12/09 07:05:23;;;;;;;12.20;5.20;;;;;;;;;;5049272;28;20218;-77
2021/12/09 07:07:51;;;;;;;5.80;5.05;;;;;;;;;;5053286;28;20195;-76
2021/12/09 07:10:19;;;;;;;10.48;4.93;;;;;;;;;;5058890;28;20565;-76
2021/12/09 07:12:47;;;;;;;8.80;4.65;;;;;;;;;;5061802;28;20272;-75
2021/12/09 07:15:15;;;;;;;6.60;4.10;;;;;;;;;;5060552;28;20574;-77
2021/12/09 07:17:42;;;;;;;6.97;4.22;;;;;;;;;;5051193;28;20199;-78
2021/12/09 07:20:11;;;;;;;6.22;4.20;;;;;;;;;;5053237;28;20206;-77
2021/12/09 07:22:38;;;;;;;7.20;4.57;;;;;;;;;;5050406;28;20201;-75
2021/12/09 07:25:06;;;;;;;9.05;4.45;;;;;;;;;;5051782;28;20222;-76
2021/12/09 07:27:33;;;;;;;12.13;5.10;;;;;;;;;;5060750;28;20230;-75
2021/12/09 07:30:03;;;;;;;8.65;5.25;;;;;;;;;;5063439;28;20194;-76
2021/12/09 07:32:30;;;;;;;7.97;4.53;;;;;;;;;;5072828;28;20653;-78
2021/12/09 07:34:57;;;;;;;8.70;4.53;;;;;;;;;;5072556;28;20228;-76
2021/12/09 07:37:24;;;;;;;8.18;5.35;;;;;;;;;;5072472;28;20205;-77
2021/12/09 07:39:51;;;;;;;7.57;4.40;;;;;;;;;;5072589;28;20202;-77
2021/12/09 07:42:18;;;;;;;8.55;4.70;;;;;;;;;;5056300;28;20289;-75
2021/12/09 07:44:46;;;;;;;10.35;5.00;;;;;;;;;;5058956;28;20247;-75
2021/12/09 07:47:14;;;;;;;10.43;4.80;;;;;;;;;;5066033;28;20663;-77
2021/12/09 07:49:41;;;;;;;6.55;4.10;;;;;;;;;;5073390;28;20251;-77
2021/12/09 07:52:09;;;;;;;6.25;4.50;;;;;;;;;;5065696;28;20225;-75
2021/12/09 07:54:36;;;;;;;7.13;4.00;;;;;;;;;;5053161;28;20627;-75
2021/12/09 07:57:03;;;;;;;9.38;5.10;;;;;;;;;;5052606;28;20238;-74
2021/12/09 07:59:30;;;;;;;5.40;4.20;;;;;;;;;;5054918;28;20214;-76
2021/12/09 08:01:58;;;;;;;6.07;4.65;;;;;;;;;;5053137;28;20566;-76
2021/12/09 08:04:26;;;;;;;7.90;4.47;;;;;;;;;;5055771;28;20209;-76
2021/12/09 08:06:53;;;;;;;8.95;4.75;;;;;;;;;;5058940;28;20208;-76
2021/12/09 08:09:20;;;;;;;8.55;4.32;;;;;;;;;;5057176;28;21512;-76
2021/12/09 08:11:48;;;;;;;10.32;4.90;;;;;;;;;;5050697;28;20222;-76
2021/12/09 08:14:16;;;;;;;8.80;4.75;;;;;;;;;;5050752;28;20207;-76
2021/12/09 08:16:43;;;;;;;7.28;4.72;;;;;;;;;;5052909;28;20199;-74
2021/12/09 08:19:11;;;;;;;8.20;5.57;;;;;;;;;;5050290;28;20264;-74
2021/12/09 08:21:42;;;;;;;7.60;4.70;;;;;;;;;;5053117;28;20234;-75
2021/12/09 08:24:11;;;;;;;8.00;4.97;;;;;;;;;;5052614;28;20252;-75
2021/12/09 08:26:39;;;;;;;8.80;5.22;;;;;;;;;;5055039;28;20211;-75
2021/12/09 08:29:06;;;;;;;7.93;4.88;;;;;;;;;;5058954;28;20202;-76
2021/12/09 08:31:35;;;;;;;9.43;5.25;;;;;;;;;;5067278;28;20209;-75
2021/12/09 08:34:02;;;;;;;14.65;6.03;;;;;;;;;;5051283;28;20314;-76
2021/12/09 08:36:29;;;;;;;7.57;4.78;;;;;;;;;;5050453;28;20578;-73
2021/12/09 08:38:58;;;;;;;12.07;6.15;;;;;;;;;;5051704;28;20210;-76
2021/12/09 08:41:26;;;;;;;8.45;5.47;;;;;;;;;;5052473;28;20700;-75
2021/12/09 08:43:53;;;;;;;10.68;5.22;;;;;;;;;;5058782;28;20202;-75
2021/12/09 08:46:20;;;;;;;11.93;5.30;;;;;;;;;;5065460;28;20214;-75
2021/12/09 08:48:47;;;;;;;12.77;5.28;;;;;;;;;;5072087;28;20211;-75
2021/12/09 08:51:15;;;;;;;8.90;4.63;;;;;;;;;;5072029;28;20581;-75
2021/12/09 08:53:42;;;;;;;12.95;5.47;;;;;;;;;;5070724;28;20197;-76
2021/12/09 08:56:10;;;;;;;9.73;5.75;;;;;;;;;;5057969;28;20234;-75
2021/12/09 08:58:38;;;;;;;10.75;8.20;;;;;;;;;;5059904;28;20205;-75
2021/12/09 09:01:11;;;;;;;10.07;6.10;;;;;;;;;;5064441;28;20198;-75
2021/12/09 09:03:38;;;;;;;9.15;6.60;;;;;;;;;;5067830;28;20206;-76
2021/12/09 09:06:05;;;;;;;9.43;6.10;;;;;;;;;;5051002;28;20218;-75
2021/12/09 09:08:32;;;;;;;6.65;4.70;;;;;;;;;;5051034;28;20217;-75
2021/12/09 09:11:00;;;;;;;14.93;6.38;;;;;;;;;;5051627;28;20225;-76
2021/12/09 09:13:28;;;;;;;7.97;5.15;;;;;;;;;;5050334;28;20203;-74
2021/12/09 09:15:55;;;;;;;8.23;4.82;;;;;;;;;;5054600;28;20218;-76
2021/12/09 09:18:22;;;;;;;7.05;4.45;;;;;;;;;;5052718;28;20216;-75
2021/12/09 09:20:50;;;;;;;7.03;4.78;;;;;;;;;;5059117;28;20204;-78
2021/12/09 09:23:18;;;;;;;9.68;4.50;;;;;;;;;;5054143;28;20210;-76
2021/12/09 09:25:45;;;;;;;6.05;4.47;;;;;;;;;;5049671;28;20230;-76
2021/12/09 09:28:13;;;;;;;6.88;5.03;;;;;;;;;;5049749;28;20572;-75
2021/12/09 09:30:47;;;;;;;5.13;4.57;;;;;;;;;;5035112;28;20199;-75
2021/12/09 09:33:16;;;;;;;11.60;4.85;;;;;;;;;;5047531;28;20464;-76
2021/12/09 09:35:44;;;;;;;6.28;4.75;;;;;;;;;;5031732;28;20590;-75
2021/12/09 09:38:11;;;;;;;7.65;5.35;;;;;;;;;;5051836;28;20222;-75
2021/12/09 09:40:41;;;;;;;6.32;4.22;;;;;;;;;;5052159;28;20242;-76
2021/12/09 09:43:26;;;;;;;10.10;5.15;;;;;;;;;;5058658;28;20194;-76
2021/12/09 09:45:55;;;;;;;9.63;4.68;;;;;;;;;;5053854;28;20215;-75
2021/12/09 09:48:23;;;;;;;11.85;5.47;;;;;;;;;;5044164;28;20210;-76
2021/12/09 09:50:50;;;;;;;15.38;6.07;;;;;;;;;;5029296;28;20202;-76
2021/12/09 09:53:17;;;;;;;8.35;5.80;;;;;;;;;;5030988;28;20223;-74
2021/12/09 09:55:46;;;;;;;9.95;5.70;;;;;;;;;;5032769;28;20234;-74
2021/12/09 09:58:14;;;;;;;13.85;4.63;;;;;;;;;;5056133;28;20563;-75
2021/12/09 10:00:41;;;;;;;8.25;4.93;;;;;;;;;;5056719;28;20249;-75
2021/12/09 10:03:11;;;;;;;8.15;5.15;;;;;;;;;;5047256;28;20661;-75
2021/12/09 10:05:43;;;;;;;11.02;5.20;;;;;;;;;;5050091;28;20773;-77
2021/12/09 10:08:12;;;;;;;10.50;5.22;;;;;;;;;;5050120;28;20190;-75
2021/12/09 10:10:41;;;;;;;7.38;4.93;;;;;;;;;;5048521;28;20294;-75
2021/12/09 10:13:13;;;;;;;8.98;5.15;;;;;;;;;;5049352;28;20566;-74
2021/12/09 10:15:42;;;;;;;12.07;5.53;;;;;;;;;;5057843;28;20226;-74
2021/12/09 10:18:11;;;;;;;11.95;5.93;;;;;;;;;;5061329;28;20194;-75
2021/12/09 10:20:47;;;;;;;12.48;5.80;;;;;;;;;;5048223;28;20560;-77
2021/12/09 10:23:29;;;;;;;9.55;5.15;;;;;;;;;;5050019;28;20831;-75
2021/12/09 10:26:11;;;;;;;10.98;4.85;;;;;;;;;;5048531;28;20222;-76
2021/12/09 10:28:40;;;;;;;8.05;5.65;;;;;;;;;;5048178;28;20195;-77
2021/12/09 10:31:10;;;;;;;10.80;5.45;;;;;;;;;;5054878;28;20210;-76
2021/12/09 10:33:58;;;;;;;10.70;4.70;;;;;;;;;;5059968;28;20264;-78
2021/12/09 10:39:25;;;;;;;9.45;4.93;;;;;;;;;;5147565;27;20517;-77
2021/12/09 10:41:53;;;;;;;12.80;5.00;;;;;;;;;;5145276;27;20214;-76
2021/12/09 10:44:30;;;;;;;9.38;5.03;;;;;;;;;;5144787;27;20202;-76
2021/12/09 10:47:07;;;;;;;7.70;4.85;;;;;;;;;;5147589;27;20189;-76
2021/12/09 10:49:40;;;;;;;14.57;4.70;;;;;;;;;;5147618;27;20266;-75
2021/12/09 10:52:20;;;;;;;7.05;4.22;;;;;;;;;;5147970;27;20376;-75
2021/12/09 10:54:48;;;;;;;7.68;4.40;;;;;;;;;;5147387;27;20582;-77
2021/12/09 10:57:23;;;;;;;9.07;3.83;;;;;;;;;;5147655;27;20215;-76
2021/12/09 10:59:50;;;;;;;9.43;4.50;;;;;;;;;;5137718;27;20193;-76
2021/12/09 11:02:30;;;;;;;9.45;3.83;;;;;;;;;;5150719;27;20198;-76
2021/12/09 11:04:59;;;;;;;7.70;3.83;;;;;;;;;;5157350;27;20202;-76
2021/12/09 11:07:29;;;;;;;8.95;3.85;;;;;;;;;;5146760;27;20188;-76
2021/12/09 11:10:14;;;;;;;7.30;2.83;;;;;;;;;;5134439;27;20278;-76
2021/12/09 11:12:48;;;;;;;10.23;3.75;;;;;;;;;;5130548;27;20278;-75
2021/12/09 11:15:17;;;;;;;5.47;3.03;;;;;;;;;;5138636;27;20222;-76
2021/12/09 11:17:46;;;;;;;6.82;3.63;;;;;;;;;;5144055;27;20687;-75
2021/12/09 11:20:14;;;;;;;5.45;3.35;;;;;;;;;;5153707;27;20198;-76
2021/12/09 11:22:44;;;;;;;5.30;3.00;;;;;;;;;;5147506;27;20260;-76
2021/12/09 11:25:30;;;;;;;9.27;3.72;;;;;;;;;;5129894;27;20381;-77
2021/12/09 11:28:11;;;;;;;5.22;3.03;;;;;;;;;;5125268;27;20200;-76
2021/12/09 11:30:53;;;;;;;4.75;3.00;;;;;;;;;;5125426;27;20196;-75
2021/12/09 11:33:33;;;;;;;5.35;3.53;;;;;;;;;;5141247;27;20218;-76
2021/12/09 11:36:01;;;;;;;7.25;3.00;;;;;;;;;;5151358;27;20207;-76
2021/12/09 11:38:44;;;;;;;6.75;3.40;;;;;;;;;;5160734;27;20223;-76
2021/12/09 11:41:26;;;;;;;5.60;2.70;;;;;;;;;;5161374;27;20758;-75
2021/12/09 11:43:53;;;;;;;6.97;3.88;;;;;;;;;;5143715;27;20256;-76
2021/12/09 11:46:20;;;;;;;7.88;3.97;;;;;;;;;;5147157;27;20214;-75
2021/12/09 11:48:49;;;;;;;6.00;2.95;;;;;;;;;;5136071;27;20200;-76
2021/12/09 11:51:16;;;;;;;6.93;3.42;;;;;;;;;;5136791;27;20180;-76
2021/12/09 11:53:54;;;;;;;7.03;3.17;;;;;;;;;;5134577;27;20195;-74
2021/12/09 11:56:28;;;;;;;4.53;3.00;;;;;;;;;;5132445;27;20208;-76
2021/12/09 11:59:22;;;;;;;9.40;4.03;;;;;;;;;;5131737;27;20218;-74
2021/12/09 12:07:32;;;;;;;5.07;3.10;;;;;;;;;;5134960;27;20183;-75
2021/12/09 12:12:50;;;;;;;7.35;2.80;;;;;;;;;;5130444;27;20196;-74
2021/12/09 12:15:41;;;;;;;7.40;3.17;;;;;;;;;;5136618;27;20299;-76
2021/12/09 12:18:27;;;;;;;4.70;2.70;;;;;;;;;;5131976;27;20276;-76
2021/12/09 12:21:17;;;;;;;6.80;3.42;;;;;;;;;;5129111;27;20287;-74
2021/12/09 12:23:55;;;;;;;6.95;3.83;;;;;;;;;;5135008;27;20278;-75
2021/12/09 12:26:53;;;;;;;3.70;3.00;;;;;;;;;;5128839;27;20684;-75
2021/12/09 12:29:39;;;;;;;5.93;2.97;;;;;;;;;;5137547;27;20196;-77
2021/12/09 12:32:36;;;;;;;6.78;3.28;;;;;;;;;;5126551;27;20195;-76
2021/12/09 12:35:27;;;;;;;6.70;3.05;;;;;;;;;;5132834;27;20208;-74
2021/12/09 12:38:05;;;;;;;5.65;3.17;;;;;;;;;;5116255;27;20230;-75
2021/12/09 12:40:36;;;;;;;7.72;2.55;;;;;;;;;;5123108;27;20267;-76
2021/12/09 12:43:07;;;;;;;6.30;2.85;;;;;;;;;;5111385;27;20204;-76
2021/12/09 12:48:42;;;;;;;5.47;3.10;;;;;;;;;;5132827;27;20188;-77
2021/12/09 12:51:14;;;;;;;5.68;3.15;;;;;;;;;;5128897;27;20206;-75
2021/12/09 12:53:43;;;;;;;4.10;2.85;;;;;;;;;;5123383;27;20188;-76
2021/12/09 12:56:13;;;;;;;8.77;3.10;;;;;;;;;;5122471;27;20208;-76
2021/12/09 12:58:40;;;;;;;3.53;2.47;;;;;;;;;;5124781;27;20219;-75
2021/12/09 13:01:22;;;;;;;9.48;2.90;;;;;;;;;;5129307;27;20191;-76
2021/12/09 13:03:54;;;;;;;3.75;2.72;;;;;;;;;;5128194;27;20191;-76
2021/12/09 13:06:38;;;;;;;4.15;2.70;;;;;;;;;;5142974;27;20342;-78
2021/12/09 13:09:24;;;;;;;3.15;2.40;;;;;;;;;;5133315;27;20203;-78
2021/12/09 13:11:55;;;;;;;5.30;2.67;;;;;;;;;;5125300;27;20228;-77
2021/12/09 13:14:25;;;;;;;4.03;2.75;;;;;;;;;;5129900;27;20192;-76
2021/12/09 13:17:02;;;;;;;5.20;3.05;;;;;;;;;;5111798;28;20448;-76
2021/12/09 13:19:35;;;;;;;7.80;2.90;;;;;;;;;;5111865;28;20560;-75
2021/12/09 13:22:03;;;;;;;3.90;2.50;;;;;;;;;;5111950;28;20227;-76
2021/12/09 13:24:39;;;;;;;3.90;2.35;;;;;;;;;;5131952;27;20198;-76
2021/12/09 13:27:16;;;;;;;5.05;2.92;;;;;;;;;;5138079;27;20640;-75
2021/12/09 13:30:04;;;;;;;6.53;2.70;;;;;;;;;;5151377;27;20191;-76
2021/12/09 13:32:50;;;;;;;10.35;2.83;;;;;;;;;;5151920;27;20345;-76
2021/12/09 13:35:25;;;;;;;7.32;2.35;;;;;;;;;;5151218;27;20297;-76
2021/12/09 13:38:11;;;;;;;3.80;2.25;;;;;;;;;;5146405;27;20269;-76
2021/12/09 13:46:13;;;;;;;3.42;2.67;;;;;;;;;;5129620;27;20207;-75
2021/12/09 13:48:46;;;;;;;2.78;2.00;;;;;;;;;;5117688;27;20196;-77
2021/12/09 13:51:30;;;;;;;3.35;2.10;;;;;;;;;;5122182;27;20192;-75
2021/12/09 13:54:17;;;;;;;2.38;2.00;;;;;;;;;;5120960;27;20195;-76
2021/12/09 13:56:45;;;;;;;3.60;2.15;;;;;;;;;;5140771;27;20191;-76
2021/12/09 13:59:16;;;;;;;2.85;2.17;;;;;;;;;;5135244;27;20215;-75
2021/12/09 14:01:43;;;;;;;2.83;2.33;;;;;;;;;;5119406;27;20668;-76
2021/12/09 14:04:11;;;;;;;3.10;2.10;;;;;;;;;;5109857;28;20398;-76
2021/12/09 14:06:38;;;;;;;3.30;2.25;;;;;;;;;;5121565;27;20211;-76
2021/12/09 14:09:05;;;;;;;3.28;2.60;;;;;;;;;;5140236;27;20553;-76
2021/12/09 14:11:35;;;;;;;3.90;2.85;;;;;;;;;;5129626;27;20192;-76
2021/12/09 14:14:10;;;;;;;5.93;2.92;;;;;;;;;;5132211;27;20188;-76
2021/12/09 14:16:45;;;;;;;5.03;2.33;;;;;;;;;;5133115;27;20579;-75
2021/12/09 14:21:53;;;;;;;2.30;2.03;;;;;;;;;;5136996;27;20187;-75
2021/12/09 14:24:23;;;;;;;5.93;2.10;;;;;;;;;;5131062;27;20562;-75
2021/12/09 14:26:52;;;;;;;2.70;2.05;;;;;;;;;;5109345;28;20200;-75
2021/12/09 14:29:20;;;;;;;2.95;1.80;;;;;;;;;;5107823;28;20303;-75
2021/12/09 14:31:49;;;;;;;3.60;2.05;;;;;;;;;;5107881;28;20192;-75
2021/12/09 14:34:16;;;;;;;2.40;2.00;;;;;;;;;;5119590;27;20191;-73
2021/12/09 14:36:45;;;;;;;2.05;1.65;;;;;;;;;;5136597;27;20218;-74
2021/12/09 14:39:13;;;;;;;1.90;1.67;;;;;;;;;;5142497;27;20211;-76
2021/12/09 14:41:41;;;;;;;2.50;1.83;;;;;;;;;;5127643;27;20188;-76
2021/12/09 14:44:11;;;;;;;2.45;1.90;;;;;;;;;;5128818;27;20210;-73
2021/12/09 14:46:41;;;;;;;2.10;1.90;;;;;;;;;;5113251;27;20208;-76
2021/12/09 14:49:19;;;;;;;2.30;1.60;;;;;;;;;;5108574;28;20197;-76
2021/12/09 14:51:47;;;;;;;2.42;1.90;;;;;;;;;;5111290;28;20642;-75
2021/12/09 14:54:15;;;;;;;2.40;2.00;;;;;;;;;;5109310;28;20654;-75
2021/12/09 14:56:45;;;;;;;2.38;1.80;;;;;;;;;;5122259;27;20710;-75
2021/12/09 14:59:17;;;;;;;1.65;1.30;;;;;;;;;;5135602;27;20219;-75
2021/12/09 15:01:48;;;;;;;3.25;1.70;;;;;;;;;;5131144;27;20290;-75
2021/12/09 15:04:18;;;;;;;2.75;2.03;;;;;;;;;;5129105;27;20282;-76
2021/12/09 15:06:54;;;;;;;3.88;2.22;;;;;;;;;;5124789;27;20196;-75
2021/12/09 15:09:21;;;;;;;3.13;2.35;;;;;;;;;;5123779;28;20192;-75
2021/12/09 15:11:49;;;;;;;3.60;2.33;;;;;;;;;;5115598;28;20196;-75
2021/12/09 15:14:19;;;;;;;2.72;2.00;;;;;;;;;;5126129;28;20554;-75
2021/12/09 15:16:47;;;;;;;2.92;2.50;;;;;;;;;;5132183;27;20199;-75
2021/12/09 15:19:17;;;;;;;2.28;1.73;;;;;;;;;;5131465;27;20573;-75
2021/12/09 15:21:44;;;;;;;1.88;1.73;;;;;;;;;;5135365;27;20192;-76